Time;durP1;ratioP1;P1;durP2;ratioP2;P2;SDS_P1;SDS_P2;PMS_P1;PMS_P2;Temp;Humidity;BMP_temperature;BMP_pressure;BME280_temperature;BME280_humidity;BME280_pressure;Samples;Min_cycle;Max_cycle;Signal;HPM_P1;HPM_P2
2021/12/16 00:02:52;;;;;;;357.42;87.82;;;4.90;99.90;;;;;;5042955;28;20396;-51
2021/12/16 00:07:58;;;;;;;468.08;94.50;;;4.90;99.90;;;;;;5047248;28;20174;-51
2021/12/16 00:10:32;;;;;;;463.60;95.38;;;4.90;99.90;;;;;;5035110;28;20045;-51
2021/12/16 00:29:57;;;;;;;484.08;103.55;;;4.60;99.90;;;;;;4935491;29;20098;-51
2021/12/16 00:35:04;;;;;;;427.75;94.00;;;4.70;99.90;;;;;;4935694;29;20082;-51
2021/12/16 00:37:30;;;;;;;543.67;101.85;;;4.70;99.90;;;;;;4950544;29;20052;-51
2021/12/16 00:39:56;;;;;;;533.95;96.93;;;4.70;99.90;;;;;;4950773;29;20036;-51
2021/12/16 00:43:00;;;;;;;476.35;95.28;;;4.70;99.90;;;;;;4935368;29;20035;-50
2021/12/16 00:56:00;;;;;;;510.23;93.45;;;4.60;99.90;;;;;;4992918;28;20046;-51
2021/12/16 00:58:33;;;;;;;483.60;91.85;;;4.60;99.90;;;;;;4992975;28;20490;-51
2021/12/16 01:01:11;;;;;;;548.65;95.57;;;4.60;99.90;;;;;;4992625;28;20039;-51
2021/12/16 01:03:54;;;;;;;351.02;65.53;;;4.60;99.90;;;;;;4992742;28;20055;-51
2021/12/16 01:34:34;;;;;;;554.80;82.28;;;4.60;99.90;;;;;;4992258;28;20449;-51
2021/12/16 01:37:39;;;;;;;488.90;76.40;;;4.50;99.90;;;;;;5007809;28;20038;-51
2021/12/16 01:50:32;;;;;;;410.17;67.93;;;4.60;99.90;;;;;;5031065;28;20052;-51
2021/12/16 01:55:44;;;;;;;463.42;68.95;;;4.50;99.90;;;;;;5043327;28;20047;-51
2021/12/16 01:58:22;;;;;;;447.60;63.85;;;4.40;99.90;;;;;;5050861;28;20040;-51
2021/12/16 02:04:10;;;;;;;491.40;66.88;;;4.40;99.90;;;;;;4972081;28;20063;-51
2021/12/16 02:09:39;;;;;;;489.08;60.80;;;4.40;99.90;;;;;;4933202;29;20115;-51
2021/12/16 02:38:48;;;;;;;364.40;50.58;;;4.50;99.90;;;;;;4914186;29;20042;-51
2021/12/16 02:41:15;;;;;;;396.23;52.80;;;4.60;99.90;;;;;;4914198;29;20043;-51
2021/12/16 02:48:41;;;;;;;381.25;50.33;;;4.60;99.90;;;;;;4946599;28;20048;-51
2021/12/16 02:51:10;;;;;;;385.92;49.03;;;4.60;99.90;;;;;;4990780;28;20047;-51
2021/12/16 02:53:41;;;;;;;289.45;40.55;;;4.60;99.90;;;;;;4996821;28;20108;-51
2021/12/16 02:56:07;;;;;;;379.67;50.57;;;4.50;99.90;;;;;;5010489;28;20042;-50
2021/12/16 02:58:37;;;;;;;402.45;50.80;;;4.60;99.90;;;;;;5007600;28;20317;-50
2021/12/16 03:01:11;;;;;;;211.90;41.83;;;4.60;99.90;;;;;;5010032;28;20049;-51
2021/12/16 03:03:39;;;;;;;107.47;32.20;;;4.70;99.90;;;;;;5016979;28;20128;-51
2021/12/16 03:06:06;;;;;;;141.40;38.00;;;4.70;99.90;;;;;;5052464;28;20044;-51
2021/12/16 03:08:33;;;;;;;185.25;37.20;;;4.60;99.90;;;;;;5052287;28;20036;-51
2021/12/16 03:19:12;;;;;;;255.45;40.92;;;4.80;99.90;;;;;;5052305;28;20052;-51
2021/12/16 03:21:44;;;;;;;252.35;40.95;;;4.70;99.90;;;;;;5051937;28;20037;-50
2021/12/16 03:29:55;;;;;;;216.55;40.38;;;4.80;99.90;;;;;;4971076;28;20070;-51
2021/12/16 03:35:13;;;;;;;169.80;39.25;;;4.90;99.90;;;;;;4971050;28;20034;-51
2021/12/16 03:37:39;;;;;;;166.70;37.70;;;4.90;99.90;;;;;;4971103;28;20085;-51
2021/12/16 03:40:11;;;;;;;106.80;35.67;;;5.00;99.90;;;;;;4973679;28;20137;-51
2021/12/16 03:42:51;;;;;;;107.63;35.53;;;5.00;99.90;;;;;;4943024;28;20101;-51
2021/12/16 03:48:34;;;;;;;108.43;37.97;;;4.90;99.90;;;;;;4955304;29;20518;-50
2021/12/16 03:51:01;;;;;;;89.25;33.38;;;4.90;99.90;;;;;;4952881;29;20083;-51
2021/12/16 03:53:27;;;;;;;90.95;36.20;;;4.90;99.90;;;;;;4955315;29;20503;-51
2021/12/16 03:55:54;;;;;;;87.13;35.72;;;4.90;99.90;;;;;;4955225;29;20506;-51
2021/12/16 03:58:20;;;;;;;76.75;30.83;;;5.00;99.90;;;;;;4955184;29;20043;-51
2021/12/16 04:00:54;;;;;;;92.90;35.65;;;4.90;99.90;;;;;;4906903;29;20051;-50
2021/12/16 04:03:20;;;;;;;70.45;31.40;;;4.70;99.90;;;;;;4955253;29;20075;-51
2021/12/16 04:05:47;;;;;;;86.05;33.53;;;4.80;99.90;;;;;;4966613;28;20124;-50
2021/12/16 04:08:14;;;;;;;94.50;38.08;;;4.90;99.90;;;;;;4997082;28;20121;-50
2021/12/16 04:10:52;;;;;;;136.02;42.17;;;4.70;99.90;;;;;;4993513;28;20061;-51
2021/12/16 04:13:19;;;;;;;132.77;42.13;;;4.80;99.90;;;;;;4993734;28;20120;-50
2021/12/16 04:15:46;;;;;;;104.10;41.45;;;5.00;99.90;;;;;;4993312;28;20053;-50
2021/12/16 04:18:12;;;;;;;88.50;38.28;;;5.00;99.90;;;;;;4993837;28;20114;-51
2021/12/16 04:20:38;;;;;;;96.05;39.15;;;4.80;99.90;;;;;;4993733;28;20170;-51
2021/12/16 04:23:06;;;;;;;88.20;40.60;;;4.70;99.90;;;;;;4997446;28;20109;-51
2021/12/16 04:25:36;;;;;;;120.85;46.72;;;4.70;99.90;;;;;;5032951;28;20045;-51
2021/12/16 04:28:07;;;;;;;136.32;50.38;;;4.90;99.90;;;;;;5032788;28;20640;-51
2021/12/16 04:30:33;;;;;;;112.93;47.35;;;5.00;99.90;;;;;;5032717;28;20049;-51
2021/12/16 04:33:00;;;;;;;117.07;49.40;;;5.00;99.90;;;;;;5032685;28;20064;-51
2021/12/16 04:35:25;;;;;;;118.35;48.80;;;5.00;99.90;;;;;;5032730;28;20095;-50
2021/12/16 04:37:52;;;;;;;86.07;36.58;;;5.00;99.90;;;;;;5032709;28;20026;-51
2021/12/16 04:40:19;;;;;;;84.60;38.58;;;4.80;99.90;;;;;;4983278;28;20037;-50
2021/12/16 04:42:47;;;;;;;139.40;55.30;;;4.60;99.90;;;;;;5053358;28;20106;-51
2021/12/16 04:45:18;;;;;;;126.10;50.70;;;4.60;99.90;;;;;;4999454;28;20034;-50
2021/12/16 04:47:44;;;;;;;143.97;54.10;;;4.70;99.90;;;;;;5032538;28;20029;-51
2021/12/16 04:50:13;;;;;;;148.10;57.22;;;4.90;99.90;;;;;;5031693;28;20041;-50
2021/12/16 04:52:39;;;;;;;182.90;62.75;;;5.00;99.90;;;;;;5025003;28;20041;-51
2021/12/16 04:55:07;;;;;;;227.50;67.78;;;4.90;99.90;;;;;;5026124;28;20127;-51
2021/12/16 04:57:33;;;;;;;166.20;54.63;;;4.90;99.90;;;;;;4991163;28;20036;-51
2021/12/16 04:59:59;;;;;;;203.18;54.75;;;4.90;99.90;;;;;;5031661;28;20034;-51
2021/12/16 05:02:26;;;;;;;262.65;54.92;;;4.80;99.90;;;;;;5005324;28;20140;-51
2021/12/16 05:04:52;;;;;;;306.02;58.47;;;4.70;99.90;;;;;;5041513;28;20028;-51
2021/12/16 05:07:21;;;;;;;188.18;45.20;;;4.60;99.90;;;;;;5039293;28;20388;-51
2021/12/16 05:10:04;;;;;;;239.23;49.15;;;4.40;99.90;;;;;;5039155;28;20099;-51
2021/12/16 05:12:34;;;;;;;126.82;39.58;;;4.30;99.90;;;;;;5039491;28;20033;-51
2021/12/16 05:15:00;;;;;;;145.93;40.10;;;4.20;99.90;;;;;;5041197;28;20025;-51
2021/12/16 05:17:35;;;;;;;185.38;42.95;;;3.90;99.90;;;;;;5057926;28;20537;-52
2021/12/16 05:20:07;;;;;;;308.90;53.55;;;4.20;99.90;;;;;;5052760;28;20032;-51
2021/12/16 05:25:51;;;;;;;242.77;49.47;;;4.40;99.90;;;;;;5054178;28;20075;-50
2021/12/16 05:28:06;;;;;;;297.42;50.72;;;4.50;99.90;;;;;;5036835;28;20045;-51
2021/12/16 05:30:32;;;;;;;214.25;46.20;;;4.50;99.90;;;;;;5053809;28;20383;-50
2021/12/16 05:32:58;;;;;;;89.47;37.28;;;4.50;99.90;;;;;;5054268;28;20029;-50
2021/12/16 05:35:24;;;;;;;231.40;48.75;;;4.20;99.90;;;;;;5053613;28;20082;-50
2021/12/16 05:37:50;;;;;;;193.50;51.90;;;4.30;99.90;;;;;;5018385;28;20068;-50
2021/12/16 05:40:23;;;;;;;159.63;46.75;;;4.40;99.90;;;;;;5050081;28;20120;-51
2021/12/16 05:42:51;;;;;;;153.05;52.38;;;4.40;99.90;;;;;;5055635;28;20032;-50
2021/12/16 05:45:18;;;;;;;83.18;40.38;;;4.50;99.90;;;;;;5047819;28;20033;-50
2021/12/16 05:47:43;;;;;;;112.70;49.20;;;4.40;99.90;;;;;;5053433;28;20511;-50
2021/12/16 05:50:10;;;;;;;110.03;48.70;;;4.40;99.90;;;;;;5046523;28;20060;-50
2021/12/16 05:52:37;;;;;;;68.35;33.75;;;4.50;99.90;;;;;;5057483;28;20036;-51
2021/12/16 05:55:06;;;;;;;85.88;42.83;;;4.20;99.90;;;;;;5017601;28;20571;-50
2021/12/16 05:57:32;;;;;;;80.28;40.75;;;4.20;99.90;;;;;;5018390;28;20037;-50
2021/12/16 05:59:58;;;;;;;97.18;46.40;;;4.00;99.90;;;;;;5053352;28;20029;-51
2021/12/16 06:02:24;;;;;;;107.90;50.20;;;4.20;99.90;;;;;;5051198;28;20045;-51
2021/12/16 06:04:50;;;;;;;71.88;33.03;;;4.30;99.90;;;;;;5026479;28;20041;-50
2021/12/16 06:07:18;;;;;;;105.32;49.25;;;4.30;99.90;;;;;;4994273;28;20039;-51
2021/12/16 06:09:46;;;;;;;101.70;47.67;;;4.40;99.90;;;;;;5059143;28;20036;-51
2021/12/16 06:12:12;;;;;;;54.90;26.10;;;4.50;99.90;;;;;;5063051;28;20475;-52
2021/12/16 06:28:06;;;;;;;83.22;41.28;;;4.70;99.90;;;;;;5052688;28;20143;-52
2021/12/16 06:30:38;;;;;;;77.07;40.03;;;4.80;99.90;;;;;;5057364;28;20503;-52
2021/12/16 06:33:07;;;;;;;95.93;43.60;;;4.80;99.90;;;;;;5058592;28;20083;-52
2021/12/16 06:35:34;;;;;;;86.22;45.38;;;4.80;99.90;;;;;;5049412;28;20118;-52
2021/12/16 06:38:00;;;;;;;85.90;44.05;;;4.80;99.90;;;;;;5052204;28;20056;-52
2021/12/16 06:40:26;;;;;;;77.05;43.13;;;4.90;99.90;;;;;;4979099;28;20516;-51
2021/12/16 06:42:55;;;;;;;85.53;43.08;;;4.90;99.90;;;;;;5010669;28;20069;-52
2021/12/16 06:45:26;;;;;;;81.72;41.80;;;4.90;99.90;;;;;;5006360;28;20041;-52
2021/12/16 06:47:58;;;;;;;71.00;36.63;;;5.00;99.90;;;;;;5030558;28;20029;-52
2021/12/16 06:50:38;;;;;;;74.50;39.10;;;5.10;99.90;;;;;;5029929;28;20377;-52
2021/12/16 06:53:06;;;;;;;55.03;25.98;;;5.10;99.90;;;;;;5030167;28;20037;-52
2021/12/16 06:58:09;;;;;;;63.88;32.50;;;4.70;99.90;;;;;;5030463;28;20163;-52
2021/12/16 07:00:42;;;;;;;71.63;38.78;;;4.60;99.90;;;;;;4999696;28;20076;-52
2021/12/16 07:03:17;;;;;;;69.90;36.15;;;4.70;99.90;;;;;;5030417;28;20108;-52
2021/12/16 07:05:45;;;;;;;76.53;39.45;;;4.70;99.90;;;;;;5030065;28;20053;-52
2021/12/16 07:08:17;;;;;;;65.07;37.13;;;4.80;99.90;;;;;;5030165;28;20029;-52
2021/12/16 07:10:45;;;;;;;;;;;4.80;99.90;;;;;;4999086;28;20408;-52
2021/12/16 07:13:18;;;;;;;69.25;33.75;;;4.90;99.90;;;;;;5052346;28;19905;-51
2021/12/16 07:15:46;;;;;;;76.43;42.88;;;4.80;99.90;;;;;;5056578;28;20178;-52
2021/12/16 07:18:12;;;;;;;76.72;42.55;;;5.00;99.90;;;;;;5021345;28;20460;-51
2021/12/16 07:20:39;;;;;;;81.50;45.58;;;5.00;99.90;;;;;;5055114;28;20036;-52
2021/12/16 07:23:07;;;;;;;71.40;39.50;;;5.00;99.90;;;;;;5004927;28;20037;-52
2021/12/16 07:25:33;;;;;;;68.47;38.40;;;5.00;99.90;;;;;;5056237;28;20040;-52
2021/12/16 07:28:03;;;;;;;68.82;40.08;;;5.10;99.90;;;;;;5056652;28;20033;-52
2021/12/16 07:30:30;;;;;;;73.88;39.42;;;5.20;99.90;;;;;;5056010;28;20051;-52
2021/12/16 07:32:57;;;;;;;71.20;38.95;;;5.20;99.90;;;;;;5056031;28;20558;-52
2021/12/16 07:35:28;;;;;;;72.53;42.25;;;5.20;99.90;;;;;;5055727;28;20023;-51
2021/12/16 07:37:55;;;;;;;73.50;41.23;;;5.30;99.90;;;;;;5055847;28;20036;-51
2021/12/16 07:40:23;;;;;;;70.22;39.47;;;5.30;99.90;;;;;;5055990;28;20029;-52
2021/12/16 07:43:12;;;;;;;75.93;43.30;;;5.40;99.90;;;;;;5055939;28;20033;-52
2021/12/16 07:45:42;;;;;;;63.05;36.88;;;5.40;99.90;;;;;;5055804;28;20090;-52
2021/12/16 07:48:11;;;;;;;62.38;36.67;;;5.50;99.90;;;;;;5053715;28;20037;-52
2021/12/16 07:50:37;;;;;;;60.20;36.28;;;5.50;99.90;;;;;;5055328;28;20036;-52
2021/12/16 07:53:05;;;;;;;68.70;38.70;;;5.50;99.90;;;;;;5055031;28;20507;-51
2021/12/16 07:55:31;;;;;;;86.25;48.15;;;5.50;99.90;;;;;;5056053;28;20074;-52
2021/12/16 07:57:57;;;;;;;63.67;36.92;;;5.50;99.90;;;;;;5055725;28;20112;-51
2021/12/16 08:00:27;;;;;;;62.35;36.20;;;5.60;99.90;;;;;;5055502;28;20111;-51
2021/12/16 08:02:53;;;;;;;65.32;37.38;;;5.60;99.90;;;;;;5055204;28;20574;-52
2021/12/16 08:05:23;;;;;;;57.35;34.42;;;5.60;99.90;;;;;;5055799;28;20030;-51
2021/12/16 08:07:49;;;;;;;63.05;36.38;;;5.60;99.90;;;;;;5055472;28;20024;-52
2021/12/16 08:10:22;;;;;;;62.50;36.38;;;5.60;99.90;;;;;;5054660;28;21396;-52
2021/12/16 08:12:49;;;;;;;62.00;37.58;;;5.70;99.90;;;;;;5051054;28;20519;-52
2021/12/16 08:15:16;;;;;;;61.85;38.13;;;5.60;99.90;;;;;;5053246;28;20695;-52
2021/12/16 08:17:43;;;;;;;61.95;39.22;;;5.60;99.90;;;;;;5054648;28;20028;-52
2021/12/16 08:20:11;;;;;;;71.53;40.65;;;5.70;99.90;;;;;;5038116;28;20040;-52
2021/12/16 08:22:38;;;;;;;89.38;50.88;;;5.80;99.90;;;;;;5050648;28;20117;-49
2021/12/16 08:25:05;;;;;;;66.75;42.60;;;5.80;99.90;;;;;;5047617;28;20408;-51
2021/12/16 08:27:33;;;;;;;61.67;38.90;;;5.80;99.90;;;;;;5051265;28;20035;-51
2021/12/16 08:29:59;;;;;;;58.92;37.10;;;5.80;99.90;;;;;;5056911;28;20044;-51
2021/12/16 08:32:25;;;;;;;61.70;36.47;;;5.70;99.90;;;;;;5059303;28;20376;-51
2021/12/16 08:34:54;;;;;;;55.97;32.92;;;5.80;99.90;;;;;;5039300;28;20033;-52
2021/12/16 08:37:24;;;;;;;63.83;37.92;;;5.80;99.90;;;;;;5051394;28;20032;-52
2021/12/16 08:39:50;;;;;;;56.95;33.95;;;5.90;99.90;;;;;;5019843;28;20048;-52
2021/12/16 08:42:16;;;;;;;54.92;33.65;;;5.90;99.90;;;;;;5058746;28;20021;-53
2021/12/16 08:44:42;;;;;;;47.22;27.75;;;5.90;99.90;;;;;;5045175;28;20043;-52
2021/12/16 08:47:12;;;;;;;55.70;31.98;;;6.00;99.90;;;;;;5065459;28;20060;-52
2021/12/16 08:49:39;;;;;;;56.95;34.58;;;6.00;99.90;;;;;;5063848;28;20037;-52
2021/12/16 08:52:13;;;;;;;49.47;32.58;;;6.10;99.90;;;;;;5059687;28;20025;-50
2021/12/16 08:54:39;;;;;;;49.50;32.05;;;6.10;99.90;;;;;;5054502;28;20033;-46
2021/12/16 08:57:06;;;;;;;53.20;33.13;;;6.10;99.90;;;;;;5054159;28;20025;-53
2021/12/16 08:59:33;;;;;;;50.72;31.17;;;6.10;99.90;;;;;;5053787;28;20384;-52
2021/12/16 09:13:14;;;;;;;49.83;33.55;;;6.10;99.90;;;;;;5039033;28;20410;-54
2021/12/16 09:15:51;;;;;;;56.17;34.22;;;6.70;99.90;;;;;;5030378;28;20069;-53
2021/12/16 09:18:21;;;;;;;46.88;29.55;;;6.60;99.90;;;;;;5027424;28;20060;-54
2021/12/16 09:20:47;;;;;;;47.22;27.80;;;6.50;99.90;;;;;;5030297;28;20048;-54
2021/12/16 09:23:15;;;;;;;47.90;29.52;;;6.50;99.90;;;;;;5029795;28;20496;-54
2021/12/16 09:25:43;;;;;;;45.88;25.75;;;6.60;99.90;;;;;;5027579;28;20034;-54
2021/12/16 09:28:10;;;;;;;41.03;27.42;;;6.60;99.90;;;;;;5029116;28;20048;-54
2021/12/16 09:30:37;;;;;;;45.88;29.00;;;6.60;99.90;;;;;;5029840;28;20022;-53
2021/12/16 09:33:07;;;;;;;58.00;34.85;;;6.60;99.90;;;;;;5028902;28;20029;-52
2021/12/16 09:35:37;;;;;;;74.13;42.67;;;6.60;99.90;;;;;;5029394;28;20046;-53
2021/12/16 09:38:07;;;;;;;55.67;32.05;;;6.60;99.90;;;;;;5029555;28;20144;-54
2021/12/16 09:40:38;;;;;;;52.25;32.72;;;6.70;99.90;;;;;;5030156;28;20038;-53
2021/12/16 09:43:05;;;;;;;46.17;30.85;;;6.80;99.90;;;;;;5024435;28;20042;-52
2021/12/16 09:45:31;;;;;;;48.88;31.67;;;6.90;99.90;;;;;;5027126;28;20076;-53
2021/12/16 09:47:57;;;;;;;53.03;32.47;;;6.90;99.90;;;;;;5029109;28;20036;-53
2021/12/16 09:50:27;;;;;;;50.28;29.23;;;6.90;99.90;;;;;;5030951;28;20469;-53
2021/12/16 09:52:54;;;;;;;43.45;29.25;;;7.00;99.90;;;;;;5029180;28;20032;-52
2021/12/16 09:55:21;;;;;;;50.53;31.70;;;7.00;99.90;;;;;;5028971;28;20033;-53
2021/12/16 09:57:47;;;;;;;44.47;29.25;;;7.00;99.90;;;;;;5028953;28;20109;-53
2021/12/16 10:00:18;;;;;;;44.60;29.58;;;7.10;99.90;;;;;;5029589;28;20022;-52
2021/12/16 10:02:46;;;;;;;40.25;27.13;;;7.20;99.90;;;;;;5023392;28;20060;-52
2021/12/16 10:05:12;;;;;;;53.53;31.10;;;7.30;99.90;;;;;;5019486;28;20523;-52
2021/12/16 10:07:39;;;;;;;41.72;28.80;;;7.40;99.90;;;;;;5019921;28;20037;-53
2021/12/16 10:10:09;;;;;;;58.80;33.47;;;7.50;99.90;;;;;;5024058;28;20030;-53
2021/12/16 10:12:39;;;;;;;41.15;24.67;;;7.50;99.90;;;;;;5001841;28;20057;-57
2021/12/16 10:17:23;;;;;;;38.30;27.38;;;7.70;99.90;;;;;;5009147;28;20050;-53
2021/12/16 10:17:56;;;;;;;46.38;29.02;;;7.70;99.90;;;;;;5005408;28;20089;-52
2021/12/16 10:20:28;;;;;;;48.30;30.10;;;7.60;99.90;;;;;;5011735;28;20038;-53
2021/12/16 10:23:07;;;;;;;71.90;40.20;;;7.60;99.90;;;;;;5009538;28;20044;-55
2021/12/16 10:25:42;;;;;;;53.42;33.08;;;7.60;99.90;;;;;;5012170;28;20050;-55
2021/12/16 10:28:14;;;;;;;52.65;32.63;;;7.40;99.90;;;;;;4979942;28;20470;-54
2021/12/16 10:30:54;;;;;;;45.55;31.17;;;7.30;99.90;;;;;;5004619;28;20034;-54
2021/12/16 10:33:28;;;;;;;69.47;38.38;;;7.30;99.90;;;;;;5008060;28;20103;-54
2021/12/16 10:36:11;;;;;;;45.75;30.42;;;7.40;99.90;;;;;;4969337;28;20446;-52
2021/12/16 10:38:57;;;;;;;40.45;25.20;;;7.40;99.90;;;;;;4968518;28;20478;-53
2021/12/16 10:41:29;;;;;;;49.53;31.70;;;7.30;99.90;;;;;;4990183;28;20105;-55
2021/12/16 10:44:19;;;;;;;38.88;26.20;;;7.40;99.90;;;;;;4991520;28;20062;-54
2021/12/16 10:46:50;;;;;;;48.72;30.00;;;7.20;99.90;;;;;;4989016;28;20129;-56
2021/12/16 10:49:19;;;;;;;45.90;27.40;;;7.30;99.90;;;;;;4992188;28;20178;-54
2021/12/16 10:51:51;;;;;;;50.17;31.92;;;7.20;99.90;;;;;;4984475;28;20050;-53
2021/12/16 10:54:25;;;;;;;44.03;28.13;;;7.40;99.90;;;;;;4993933;28;20565;-55
2021/12/16 10:57:04;;;;;;;43.65;28.42;;;7.40;99.90;;;;;;4987921;28;20085;-55
2021/12/16 10:59:36;;;;;;;41.15;27.08;;;7.40;99.90;;;;;;4991602;28;20430;-55
2021/12/16 11:02:15;;;;;;;42.67;29.13;;;7.50;99.90;;;;;;4987758;28;20238;-53
2021/12/16 11:04:51;;;;;;;39.92;27.10;;;7.60;99.90;;;;;;4975674;28;20120;-55
2021/12/16 11:07:25;;;;;;;43.40;27.35;;;7.60;99.90;;;;;;5015753;28;20064;-54
2021/12/16 11:10:03;;;;;;;38.50;27.23;;;7.50;99.90;;;;;;5014200;28;20034;-55
2021/12/16 11:12:37;;;;;;;36.22;25.13;;;7.60;99.90;;;;;;5014347;28;20509;-54
2021/12/16 11:15:11;;;;;;;40.92;26.77;;;7.60;99.90;;;;;;5029812;28;20045;-54
2021/12/16 11:17:46;;;;;;;36.08;24.20;;;7.60;99.90;;;;;;5015007;28;20068;-56
2021/12/16 11:20:18;;;;;;;38.45;25.73;;;7.70;99.90;;;;;;5009813;28;21613;-56
2021/12/16 11:22:45;;;;;;;35.58;24.92;;;7.60;99.90;;;;;;5020756;28;20057;-56
2021/12/16 11:25:23;;;;;;;39.33;26.30;;;7.70;99.90;;;;;;5008047;28;20038;-56
2021/12/16 11:28:09;;;;;;;35.30;24.60;;;7.90;99.90;;;;;;4970904;28;20509;-56
2021/12/16 11:30:38;;;;;;;33.65;23.40;;;7.80;99.90;;;;;;4966782;28;20537;-53
2021/12/16 11:33:17;;;;;;;35.72;24.65;;;7.90;99.90;;;;;;4940269;28;20175;-56
2021/12/16 11:35:47;;;;;;;37.03;24.98;;;7.90;99.90;;;;;;4964555;28;20046;-56
2021/12/16 11:38:25;;;;;;;37.22;26.73;;;8.20;99.90;;;;;;4967612;28;20031;-53
2021/12/16 11:41:09;;;;;;;35.42;24.92;;;8.10;99.90;;;;;;4964146;28;20043;-56
2021/12/16 11:43:42;;;;;;;41.33;28.00;;;8.20;99.90;;;;;;4963549;28;20050;-52
2021/12/16 11:46:21;;;;;;;39.50;26.45;;;8.20;99.90;;;;;;4966651;28;20050;-56
2021/12/16 11:48:49;;;;;;;34.97;23.17;;;8.20;99.90;;;;;;4967056;28;20109;-54
2021/12/16 11:51:21;;;;;;;38.88;27.83;;;7.80;99.90;;;;;;4951721;28;20043;-52
2021/12/16 11:53:56;;;;;;;42.22;30.77;;;7.90;99.90;;;;;;4951026;28;20039;-56
2021/12/16 11:56:42;;;;;;;45.30;30.73;;;8.00;99.90;;;;;;4949489;28;20110;-56
2021/12/16 11:59:09;;;;;;;45.92;31.50;;;8.10;99.90;;;;;;4949821;28;20039;-56
2021/12/16 12:01:38;;;;;;;49.00;32.65;;;8.10;99.90;;;;;;4951712;28;20082;-56
2021/12/16 12:04:07;;;;;;;44.90;32.10;;;8.10;99.90;;;;;;4939800;28;20027;-56
2021/12/16 12:06:34;;;;;;;44.53;27.95;;;8.20;99.90;;;;;;5000336;28;20039;-54
2021/12/16 12:09:02;;;;;;;47.20;33.53;;;7.90;99.90;;;;;;5001630;28;20034;-53
2021/12/16 12:11:33;;;;;;;46.88;32.75;;;7.90;99.90;;;;;;5007879;28;20049;-54
2021/12/16 12:14:06;;;;;;;45.13;31.95;;;7.80;99.90;;;;;;5009867;28;20801;-55
2021/12/16 12:16:36;;;;;;;50.78;34.80;;;7.80;99.90;;;;;;5008810;28;20472;-53
2021/12/16 12:19:13;;;;;;;46.65;33.92;;;7.60;99.90;;;;;;5001692;28;21138;-54
2021/12/16 12:21:58;;;;;;;50.75;34.38;;;7.40;99.90;;;;;;4998122;28;20054;-54
2021/12/16 12:24:44;;;;;;;57.28;37.90;;;7.40;99.90;;;;;;4993516;28;20066;-47
2021/12/16 12:27:12;;;;;;;51.85;34.95;;;7.30;99.90;;;;;;4998464;28;20042;-48
2021/12/16 12:29:50;;;;;;;52.13;36.05;;;7.30;99.90;;;;;;5029383;28;20049;-50
2021/12/16 12:32:25;;;;;;;62.42;40.60;;;7.30;99.90;;;;;;5029932;28;20026;-49
2021/12/16 12:34:59;;;;;;;67.35;44.53;;;7.40;99.90;;;;;;5028975;28;20037;-48
2021/12/16 12:37:29;;;;;;;55.55;37.00;;;7.40;99.90;;;;;;5029913;28;20037;-47
2021/12/16 12:39:59;;;;;;;51.72;36.65;;;7.50;99.90;;;;;;4993320;28;20040;-47
2021/12/16 12:42:26;;;;;;;57.47;40.63;;;7.40;99.90;;;;;;5028582;28;20120;-47
2021/12/16 12:44:52;;;;;;;55.75;37.97;;;7.40;99.90;;;;;;4994547;28;20083;-49
2021/12/16 12:47:25;;;;;;;53.65;36.53;;;7.40;99.90;;;;;;5003956;28;20034;-49
2021/12/16 12:49:52;;;;;;;49.45;34.97;;;7.30;99.90;;;;;;5028824;28;20124;-49
2021/12/16 13:03:41;;;;;;;50.97;36.50;;;7.30;99.90;;;;;;5077376;27;20457;-48
2021/12/16 13:06:14;;;;;;;52.30;36.90;;;7.20;99.90;;;;;;5086513;28;20032;-48
2021/12/16 13:08:43;;;;;;;52.25;36.20;;;7.30;99.90;;;;;;5079849;28;20036;-48
2021/12/16 13:11:29;;;;;;;51.30;35.08;;;7.30;99.90;;;;;;5076616;28;20475;-48
2021/12/16 13:14:02;;;;;;;56.45;37.03;;;7.30;99.90;;;;;;5081954;28;20040;-48
2021/12/16 13:16:55;;;;;;;;;;;7.30;99.90;;;;;;5080521;28;20044;-48
2021/12/16 13:28:15;;;;;;;50.22;35.20;;;7.30;99.90;;;;;;5080567;28;20085;-48
2021/12/16 13:30:54;;;;;;;49.45;33.72;;;7.20;99.90;;;;;;5074133;28;20028;-48
2021/12/16 13:33:24;;;;;;;51.95;35.45;;;7.20;99.90;;;;;;5082486;28;20044;-48
2021/12/16 13:36:02;;;;;;;49.38;34.63;;;7.20;99.90;;;;;;5080835;28;20043;-48
2021/12/16 13:38:40;;;;;;;52.67;36.75;;;7.30;99.90;;;;;;5075843;28;20029;-48
2021/12/16 13:41:34;;;;;;;55.28;35.70;;;7.20;99.90;;;;;;5077233;28;20028;-48
2021/12/16 13:44:10;;;;;;;52.70;35.53;;;7.20;99.90;;;;;;5079435;28;20028;-47
2021/12/16 13:59:29;;;;;;;53.27;35.27;;;7.20;99.90;;;;;;5053643;28;20171;-49
2021/12/16 14:01:53;;;;;;;53.38;34.78;;;7.10;99.90;;;;;;5060250;28;20127;-48
2021/12/16 14:07:27;;;;;;;66.22;38.90;;;7.10;99.90;;;;;;5038080;28;20471;-48
2021/12/16 14:10:18;;;;;;;53.83;33.92;;;7.20;99.90;;;;;;5049795;28;20623;-48
2021/12/16 14:16:16;;;;;;;73.65;41.05;;;7.10;99.90;;;;;;5047697;28;20040;-48
2021/12/16 14:25:19;;;;;;;72.85;42.17;;;7.20;99.90;;;;;;4969362;28;20402;-48
2021/12/16 14:45:13;;;;;;;84.40;53.35;;;7.00;99.90;;;;;;5010646;28;20047;-47
2021/12/16 14:49:50;;;;;;;81.30;51.30;;;6.90;99.90;;;;;;4991965;28;20064;-48
2021/12/16 14:52:26;;;;;;;100.88;61.83;;;7.00;99.90;;;;;;5010719;28;20037;-48
2021/12/16 14:54:55;;;;;;;92.80;61.03;;;7.00;99.90;;;;;;4990545;28;20049;-48
2021/12/16 14:57:42;;;;;;;89.07;56.67;;;7.00;99.90;;;;;;5010001;28;20056;-48
2021/12/16 15:00:13;;;;;;;89.32;60.35;;;7.10;99.90;;;;;;5011218;28;20072;-48
2021/12/16 15:02:41;;;;;;;87.85;58.30;;;7.00;99.90;;;;;;5009295;28;20668;-48
2021/12/16 15:05:23;;;;;;;83.47;53.45;;;7.00;99.90;;;;;;5006868;28;20042;-48
2021/12/16 15:07:49;;;;;;;;;;;6.90;99.90;;;;;;5007232;28;20128;-48
2021/12/16 15:10:16;;;;;;;109.40;66.68;;;7.00;99.90;;;;;;5010881;28;20004;-48
2021/12/16 15:12:53;;;;;;;123.03;72.60;;;6.90;99.90;;;;;;5013930;28;20083;-48
2021/12/16 15:15:29;;;;;;;98.05;61.17;;;7.00;99.90;;;;;;5029831;28;20044;-48
2021/12/16 15:45:17;;;;;;;107.00;65.80;;;7.00;99.90;;;;;;5057048;28;20130;-46
2021/12/16 15:48:13;;;;;;;102.13;62.58;;;7.00;99.90;;;;;;5060853;28;20020;-44
2021/12/16 15:50:38;;;;;;;95.82;64.55;;;7.00;99.90;;;;;;5057411;28;20036;-47
2021/12/16 15:53:17;;;;;;;81.72;53.10;;;7.00;99.90;;;;;;5063856;28;20442;-46
2021/12/16 15:55:51;;;;;;;77.25;54.28;;;6.90;99.90;;;;;;5066908;28;20079;-48
2021/12/16 15:58:28;;;;;;;74.57;52.90;;;6.90;99.90;;;;;;5067932;28;20029;-48
2021/12/16 16:01:06;;;;;;;69.03;46.45;;;7.00;99.90;;;;;;5069962;28;20162;-47
2021/12/16 16:03:32;;;;;;;63.30;42.92;;;7.00;99.90;;;;;;5072721;28;20087;-49
2021/12/16 16:06:01;;;;;;;65.28;43.80;;;7.00;99.90;;;;;;5064378;28;20049;-49
2021/12/16 16:08:30;;;;;;;63.55;42.03;;;6.90;99.90;;;;;;5063418;28;20067;-47
2021/12/16 16:11:01;;;;;;;59.63;41.45;;;6.80;99.90;;;;;;5055290;28;20021;-48
2021/12/16 16:13:31;;;;;;;60.87;39.73;;;6.80;99.90;;;;;;5051768;28;20068;-51
2021/12/16 16:16:02;;;;;;;61.53;39.65;;;6.80;99.90;;;;;;5051720;28;20262;-51
2021/12/16 16:21:00;;;;;;;55.80;37.45;;;6.80;99.90;;;;;;5051692;28;20028;-48
2021/12/16 16:23:28;;;;;;;60.20;38.72;;;6.90;99.90;;;;;;5051649;28;20115;-49
2021/12/16 16:25:55;;;;;;;60.97;39.55;;;6.90;99.90;;;;;;5051362;28;20033;-47
2021/12/16 16:28:24;;;;;;;54.40;36.78;;;6.90;99.90;;;;;;5051604;28;20059;-45
2021/12/16 16:30:52;;;;;;;52.10;36.28;;;6.90;99.90;;;;;;5051383;28;20690;-50
2021/12/16 16:33:21;;;;;;;55.55;36.65;;;6.80;99.90;;;;;;5065936;28;20159;-53
2021/12/16 16:35:55;;;;;;;55.58;37.15;;;6.80;99.90;;;;;;5051396;28;20057;-53
2021/12/16 16:38:39;;;;;;;49.58;34.20;;;6.80;99.90;;;;;;5051888;28;20167;-49
2021/12/16 16:41:11;;;;;;;53.58;35.47;;;6.80;99.90;;;;;;5069501;28;20031;-53
2021/12/16 16:43:42;;;;;;;53.42;35.33;;;6.80;99.90;;;;;;5094241;28;20029;-49
2021/12/16 16:46:17;;;;;;;53.28;33.80;;;6.70;99.90;;;;;;5068002;28;20499;-49
2021/12/16 16:49:02;;;;;;;64.45;40.75;;;6.80;99.90;;;;;;5006694;28;20036;-51
2021/12/16 16:51:41;;;;;;;69.97;44.75;;;6.80;99.90;;;;;;5007607;28;20389;-51
2021/12/16 16:54:30;;;;;;;57.78;36.90;;;6.80;99.90;;;;;;4968114;28;20042;-52
2021/12/16 16:57:02;;;;;;;67.32;42.65;;;6.70;99.90;;;;;;4969179;28;20050;-52
2021/12/16 16:59:30;;;;;;;;;;;6.80;99.90;;;;;;4968890;28;20038;-52
2021/12/16 17:01:59;;;;;;;53.22;33.75;;;6.70;99.90;;;;;;4969022;28;19929;-51
2021/12/16 17:04:25;;;;;;;52.10;33.30;;;6.70;99.90;;;;;;4969386;28;20070;-47
2021/12/16 17:06:56;;;;;;;52.30;34.10;;;6.70;99.90;;;;;;4950583;28;20083;-48
2021/12/16 17:09:29;;;;;;;52.72;34.78;;;6.60;99.90;;;;;;4967321;28;20126;-48
2021/12/16 17:11:55;;;;;;;51.72;35.05;;;6.70;99.90;;;;;;4969788;28;20533;-51
2021/12/16 17:14:34;;;;;;;50.15;31.10;;;6.70;99.90;;;;;;4969547;28;20054;-51